New Hartford, Minnesota
Current Conditions -  °F | °C
As of 2:53 PM on Tuesday 25 Nov 2014 (Local Time) from KLSE Reporting Station
Clear Clear  
Wind Chill: 26°   Ceiling: Unl
Heat Index: 26°   Visibility: 10mi
Dew Point: 14°   Wind: 3mph
Humidity: 60%   Direction: 70°ENE
Pressure: 30.08"   Gusts: NA
Location:  43.9163°N, 91.4255°W
Report Text: KLSE 252053Z 07003KT 10SM CLR M03/M10 A3008 RMK AO2 SLP203 T10331100 50000
Loading
Personal Weather Stations






























Interactive Weather Map New forecast layout! Learn more

10-Day Weather Forecast

Advertisements
Track Severe Weather on mobile